Time;durP1;ratioP1;P1;durP2;ratioP2;P2;SDS_P1;SDS_P2;PMS_P1;PMS_P2;Temp;Humidity;BMP_temperature;BMP_pressure;BME280_temperature;BME280_humidity;BME280_pressure;Samples;Min_cycle;Max_cycle;Signal;HPM_P1;HPM_P2
2024/02/16 00:01:16;;;;;;;4.47;2.03;;;;;;;8.85;59.70;101004.34;4925544;28;20689;-67
2024/02/16 00:03:48;;;;;;;3.85;1.90;;;;;;;9.08;58.71;101005.38;4926393;28;20057;-66
2024/02/16 00:06:14;;;;;;;5.45;2.30;;;;;;;8.83;59.75;101010.47;4982201;28;20451;-69
2024/02/16 00:08:40;;;;;;;6.32;1.55;;;;;;;8.94;59.22;101009.25;4980796;28;20564;-68
2024/02/16 00:11:05;;;;;;;3.20;2.10;;;;;;;8.83;59.29;101006.13;4984961;28;20054;-68
2024/02/16 00:13:32;;;;;;;3.90;1.65;;;;;;;8.75;59.95;101008.09;4959703;28;20053;-69
2024/02/16 00:15:57;;;;;;;4.43;2.13;;;;;;;8.85;59.11;101008.66;4944998;28;20894;-68
2024/02/16 00:18:23;;;;;;;10.52;2.90;;;;;;;8.89;59.33;101005.91;4983326;28;20029;-69
2024/02/16 00:20:49;;;;;;;7.88;2.25;;;;;;;9.02;58.87;101009.00;4970143;28;20051;-70
2024/02/16 00:23:15;;;;;;;4.82;2.25;;;;;;;8.60;60.09;101008.53;4955239;28;20041;-69
2024/02/16 00:25:41;;;;;;;4.30;2.10;;;;;;;8.69;59.87;101013.47;4925925;28;20061;-69
2024/02/16 00:28:08;;;;;;;3.65;1.95;;;;;;;8.92;58.95;101005.84;4978075;28;20083;-68
2024/02/16 00:30:33;;;;;;;4.72;2.33;;;;;;;8.59;60.21;101002.47;4987562;28;20571;-68
2024/02/16 00:33:00;;;;;;;4.03;2.40;;;;;;;8.73;59.71;101005.53;4981561;28;20033;-68
2024/02/16 00:35:26;;;;;;;5.13;2.65;;;;;;;8.82;59.08;100999.19;4966498;28;20041;-69
2024/02/16 00:37:52;;;;;;;5.75;1.85;;;;;;;8.83;59.28;100992.22;4949007;28;20412;-69
2024/02/16 00:40:17;;;;;;;5.43;2.28;;;;;;;9.00;58.64;100991.72;4966556;28;20041;-70
2024/02/16 00:42:43;;;;;;;4.53;2.20;;;;;;;9.01;58.75;100985.56;4978775;28;20575;-69
2024/02/16 00:45:08;;;;;;;8.02;1.85;;;;;;;9.02;58.42;100980.31;4983599;28;20030;-69
2024/02/16 00:47:37;;;;;;;4.80;2.00;;;;;;;8.93;58.51;100984.06;4967669;28;20041;-69
2024/02/16 00:50:05;;;;;;;3.65;2.25;;;;;;;8.94;58.82;100977.97;4980728;28;20056;-69
2024/02/16 00:52:30;;;;;;;4.65;2.25;;;;;;;8.52;60.13;100969.69;4986975;28;20132;-69
2024/02/16 00:54:58;;;;;;;8.48;2.83;;;;;;;8.87;58.85;100973.81;4982004;28;20585;-68
2024/02/16 00:57:23;;;;;;;3.25;1.90;;;;;;;8.91;58.79;100972.84;4985747;28;20503;-68
2024/02/16 00:59:50;;;;;;;5.15;1.98;;;;;;;9.00;58.53;100970.84;4983718;28;20036;-68
2024/02/16 01:02:16;;;;;;;6.45;2.45;;;;;;;8.78;59.15;100976.72;4981623;28;20042;-69
2024/02/16 01:04:42;;;;;;;8.50;1.98;;;;;;;8.79;59.27;100973.25;4982809;28;20636;-69
2024/02/16 01:07:07;;;;;;;4.05;2.17;;;;;;;8.78;59.14;100971.50;4981786;28;20045;-69
2024/02/16 01:09:33;;;;;;;4.65;2.50;;;;;;;8.73;59.36;100968.22;4986568;28;20022;-69
2024/02/16 01:12:01;;;;;;;5.60;2.28;;;;;;;8.20;60.77;100962.81;4960386;28;20631;-69
2024/02/16 01:14:27;;;;;;;10.18;2.70;;;;;;;8.44;60.00;100962.09;4950482;28;20041;-67
2024/02/16 01:16:53;;;;;;;5.05;2.50;;;;;;;8.30;60.47;100956.44;4938047;28;20425;-72
2024/02/16 01:19:18;;;;;;;4.45;2.50;;;;;;;8.78;58.81;100953.28;4966876;28;20396;-71
2024/02/16 01:21:47;;;;;;;4.38;2.53;;;;;;;8.73;59.00;100944.75;4930456;28;20050;-69
2024/02/16 01:24:17;;;;;;;5.28;2.83;;;;;;;8.72;59.12;100946.50;4911551;28;20725;-69
2024/02/16 01:26:43;;;;;;;3.28;2.10;;;;;;;8.71;59.03;100950.00;4926952;28;20346;-68
2024/02/16 01:29:10;;;;;;;7.65;2.08;;;;;;;8.58;59.39;100933.00;4948297;28;20186;-69
2024/02/16 01:31:37;;;;;;;9.98;2.80;;;;;;;8.58;59.09;100938.22;4927724;28;20053;-71
2024/02/16 01:34:09;;;;;;;5.40;2.53;;;;;;;8.63;59.08;100931.13;4922231;28;20263;-69
2024/02/16 01:36:38;;;;;;;6.32;2.60;;;;;;;8.69;58.74;100935.28;4940552;28;20618;-75
2024/02/16 01:39:04;;;;;;;8.35;2.83;;;;;;;8.66;58.96;100930.19;4989673;28;20460;-75
2024/02/16 01:41:30;;;;;;;8.43;2.53;;;;;;;8.65;58.58;100921.53;4977631;28;20096;-76
2024/02/16 01:43:58;;;;;;;3.83;2.55;;;;;;;8.68;58.75;100913.59;4971226;28;20032;-73
2024/02/16 01:46:24;;;;;;;5.63;3.40;;;;;;;8.64;58.67;100908.53;4957845;28;20045;-79
2024/02/16 01:48:55;;;;;;;5.00;2.22;;;;;;;8.54;59.09;100915.78;4955898;28;20218;-75
2024/02/16 01:51:25;;;;;;;5.15;2.78;;;;;;;8.17;60.09;100916.88;4980162;28;20132;-74
2024/02/16 01:53:52;;;;;;;4.82;2.53;;;;;;;8.34;59.87;100919.00;4971216;28;20037;-66
2024/02/16 01:56:20;;;;;;;3.92;2.42;;;;;;;8.47;59.44;100920.34;4943804;28;20038;-67
2024/02/16 01:58:46;;;;;;;5.75;3.10;;;;;;;8.28;59.56;100914.81;4980386;28;20038;-68
2024/02/16 02:01:14;;;;;;;4.03;2.70;;;;;;;8.22;59.87;100908.94;4972387;28;20033;-67
2024/02/16 02:03:39;;;;;;;7.00;1.77;;;;;;;8.38;59.31;100909.31;4988248;28;20056;-67
2024/02/16 02:06:05;;;;;;;4.28;2.65;;;;;;;8.14;59.82;100915.22;4983383;28;20563;-66
2024/02/16 02:08:30;;;;;;;4.68;2.42;;;;;;;8.36;59.10;100906.78;4967213;28;20999;-65
2024/02/16 02:10:56;;;;;;;11.68;3.58;;;;;;;8.39;59.03;100906.69;4967961;28;21612;-64
2024/02/16 02:13:21;;;;;;;6.25;3.63;;;;;;;8.31;58.79;100903.44;4973190;28;20040;-64
2024/02/16 02:15:47;;;;;;;5.22;2.45;;;;;;;8.32;58.63;100899.97;4980311;28;20136;-63
2024/02/16 02:18:13;;;;;;;4.97;2.35;;;;;;;8.30;58.73;100892.19;4935723;28;20025;-66
2024/02/16 02:20:39;;;;;;;4.20;2.50;;;;;;;8.22;58.52;100890.72;4967523;28;20061;-66
2024/02/16 02:23:08;;;;;;;5.82;2.30;;;;;;;7.95;59.98;100901.88;4989102;28;20028;-67
2024/02/16 02:25:33;;;;;;;7.50;2.45;;;;;;;8.13;59.01;100890.06;4972689;28;20040;-65
2024/02/16 02:27:59;;;;;;;6.65;2.70;;;;;;;8.09;59.20;100891.09;4984284;28;20029;-65
2024/02/16 02:30:27;;;;;;;7.15;3.20;;;;;;;8.14;58.93;100894.41;4971501;28;20377;-63
2024/02/16 02:32:53;;;;;;;5.35;3.17;;;;;;;7.97;59.63;100894.03;4949382;28;20050;-65
2024/02/16 02:35:21;;;;;;;4.50;2.58;;;;;;;8.11;59.21;100891.91;4956750;28;20038;-71
2024/02/16 02:37:46;;;;;;;5.90;2.35;;;;;;;8.17;58.81;100895.22;4966500;28;20120;-71
2024/02/16 02:40:12;;;;;;;6.88;2.88;;;;;;;8.12;58.89;100877.97;4985429;28;20495;-70
2024/02/16 02:42:38;;;;;;;6.93;2.30;;;;;;;8.00;59.29;100878.31;4968408;28;20295;-76
2024/02/16 02:45:05;;;;;;;4.45;1.85;;;;;;;8.02;59.12;100880.88;4972189;28;20038;-75
2024/02/16 02:47:32;;;;;;;4.28;1.77;;;;;;;8.10;59.20;100874.56;4973971;28;20041;-74
2024/02/16 02:49:57;;;;;;;10.50;1.95;;;;;;;8.22;58.81;100864.66;4975268;28;20030;-77
2024/02/16 02:52:23;;;;;;;7.28;2.33;;;;;;;8.05;58.98;100871.25;4974395;28;20749;-74
2024/02/16 02:54:49;;;;;;;4.63;2.33;;;;;;;8.13;58.56;100868.41;4991372;28;20475;-77
2024/02/16 02:57:15;;;;;;;3.50;2.05;;;;;;;8.11;58.73;100871.06;4982004;28;20523;-69
2024/02/16 02:59:41;;;;;;;8.15;2.00;;;;;;;8.16;58.34;100868.31;4988144;28;20037;-73
2024/02/16 03:02:06;;;;;;;9.00;2.13;;;;;;;7.93;59.33;100867.22;4985831;28;20411;-73
2024/02/16 03:04:33;;;;;;;4.43;2.35;;;;;;;8.09;58.39;100861.56;4992384;28;20026;-73
2024/02/16 03:06:58;;;;;;;6.88;2.45;;;;;;;7.99;58.92;100860.16;4968967;28;20038;-73
2024/02/16 03:09:24;;;;;;;4.05;1.95;;;;;;;7.89;58.63;100854.34;4988903;28;20059;-72
2024/02/16 03:11:50;;;;;;;4.53;2.22;;;;;;;8.10;58.16;100855.47;4984301;28;20160;-75
2024/02/16 03:14:19;;;;;;;7.03;2.10;;;;;;;8.08;58.16;100846.88;4990787;28;20146;-72
2024/02/16 03:16:44;;;;;;;3.70;2.10;;;;;;;8.05;58.14;100842.59;4988845;28;20049;-73
2024/02/16 03:19:10;;;;;;;4.45;1.80;;;;;;;8.01;58.10;100832.34;4990467;28;20690;-73
2024/02/16 03:21:37;;;;;;;4.50;2.00;;;;;;;7.91;58.48;100830.00;4963432;28;20067;-74
2024/02/16 03:24:06;;;;;;;4.70;2.22;;;;;;;7.95;58.33;100838.56;4925572;28;20037;-73
2024/02/16 03:26:32;;;;;;;5.65;1.95;;;;;;;7.93;58.13;100835.16;4946688;28;20203;-73
2024/02/16 03:28:58;;;;;;;9.48;1.92;;;;;;;7.85;58.66;100839.75;4947877;28;20254;-76
2024/02/16 03:31:25;;;;;;;3.25;2.65;;;;;;;7.86;58.51;100833.63;4948647;28;20718;-75
2024/02/16 03:33:53;;;;;;;5.13;2.13;;;;;;;7.87;58.60;100825.78;4934785;28;21110;-75
2024/02/16 03:36:19;;;;;;;4.28;2.08;;;;;;;7.88;58.40;100826.63;4971352;28;20219;-75
2024/02/16 03:38:53;;;;;;;4.32;2.35;;;;;;;7.78;58.58;100825.19;4929794;28;20653;-74
2024/02/16 03:41:24;;;;;;;6.30;2.78;;;;;;;7.73;58.63;100828.81;4944910;28;20429;-75
2024/02/16 03:43:50;;;;;;;5.55;1.95;;;;;;;7.71;58.62;100825.38;4955398;28;20064;-70
2024/02/16 03:46:16;;;;;;;5.95;2.33;;;;;;;7.68;58.45;100830.66;4965946;28;20510;-69
2024/02/16 03:48:42;;;;;;;5.18;1.70;;;;;;;7.65;58.89;100830.75;4987698;28;20200;-70
2024/02/16 03:51:07;;;;;;;5.10;1.75;;;;;;;7.61;58.89;100834.34;4979181;28;20054;-69
2024/02/16 03:53:33;;;;;;;7.10;1.90;;;;;;;7.60;59.29;100824.84;4946118;28;20042;-74
2024/02/16 03:55:59;;;;;;;3.42;1.58;;;;;;;7.59;59.01;100820.53;4956251;28;20552;-73
2024/02/16 03:58:24;;;;;;;4.05;2.15;;;;;;;7.59;59.01;100822.28;4975447;28;20152;-73
2024/02/16 04:00:52;;;;;;;3.85;2.47;;;;;;;7.57;59.06;100837.91;4968500;28;20077;-73
2024/02/16 04:03:18;;;;;;;3.35;1.58;;;;;;;7.40;59.85;100840.09;4976467;28;20977;-73
2024/02/16 04:05:44;;;;;;;2.35;1.63;;;;;;;7.53;59.36;100839.72;4986054;28;20516;-73
2024/02/16 04:08:10;;;;;;;3.25;2.08;;;;;;;7.46;59.43;100837.31;4967090;28;20041;-70
2024/02/16 04:10:35;;;;;;;3.42;1.95;;;;;;;7.55;59.03;100847.50;4968367;28;20049;-70
2024/02/16 04:13:01;;;;;;;4.40;2.17;;;;;;;7.49;59.10;100839.88;4981328;28;20053;-70
2024/02/16 04:15:27;;;;;;;3.38;1.80;;;;;;;7.49;59.18;100839.88;4984690;28;20103;-70
2024/02/16 04:17:52;;;;;;;3.75;2.22;;;;;;;7.49;58.74;100830.31;4984629;28;20025;-70
2024/02/16 04:20:19;;;;;;;3.65;2.05;;;;;;;7.43;58.88;100842.63;4986688;28;20412;-68
2024/02/16 04:22:45;;;;;;;4.03;2.03;;;;;;;7.33;59.31;100837.69;4980809;28;20037;-69
2024/02/16 04:25:10;;;;;;;2.97;2.00;;;;;;;7.40;59.21;100842.69;4982423;28;20111;-68
2024/02/16 04:27:36;;;;;;;6.15;2.05;;;;;;;7.35;59.38;100842.81;4982941;28;20580;-69
2024/02/16 04:30:03;;;;;;;3.92;2.35;;;;;;;7.36;59.26;100838.50;4981756;28;20029;-70
2024/02/16 04:32:28;;;;;;;4.25;2.10;;;;;;;7.41;58.94;100831.41;4981043;28;20523;-69
2024/02/16 04:34:55;;;;;;;4.25;1.65;;;;;;;7.36;59.57;100822.91;4973303;28;20052;-69
2024/02/16 04:37:23;;;;;;;2.38;1.52;;;;;;;7.40;59.11;100817.56;4970987;28;20044;-70
2024/02/16 04:39:49;;;;;;;4.57;1.85;;;;;;;7.40;58.88;100803.69;4966240;28;20440;-70
2024/02/16 04:42:20;;;;;;;3.15;1.45;;;;;;;7.38;58.58;100810.66;4963245;28;20045;-71
2024/02/16 04:44:48;;;;;;;8.20;1.65;;;;;;;7.36;58.70;100815.94;4947842;28;20041;-69
2024/02/16 04:47:17;;;;;;;5.65;2.50;;;;;;;7.21;59.58;100816.34;4905197;28;20049;-70
2024/02/16 04:49:47;;;;;;;3.92;2.17;;;;;;;7.45;59.00;100810.47;4943584;28;20184;-69
2024/02/16 04:52:13;;;;;;;4.50;1.83;;;;;;;7.47;58.69;100815.66;4940249;28;20337;-70
2024/02/16 04:54:40;;;;;;;3.88;2.35;;;;;;;7.28;59.09;100810.94;4949937;28;20033;-69
2024/02/16 04:57:06;;;;;;;4.28;2.38;;;;;;;7.30;59.11;100814.34;4978292;28;20064;-69
2024/02/16 04:59:31;;;;;;;7.78;2.10;;;;;;;7.40;58.69;100811.47;4984608;28;20574;-69
2024/02/16 05:01:57;;;;;;;4.60;2.22;;;;;;;7.41;58.97;100813.22;4964901;28;20128;-70
2024/02/16 05:04:22;;;;;;;8.50;2.92;;;;;;;7.51;58.64;100812.03;4970333;28;21045;-69
2024/02/16 05:06:48;;;;;;;4.65;2.40;;;;;;;7.52;58.66;100809.41;4925029;28;20045;-69
2024/02/16 05:09:16;;;;;;;4.28;2.78;;;;;;;7.41;58.88;100823.59;4952145;28;20691;-69
2024/02/16 05:11:43;;;;;;;8.65;2.92;;;;;;;7.44;59.13;100815.72;4984713;28;20041;-68
2024/02/16 05:14:11;;;;;;;3.20;2.10;;;;;;;7.63;58.68;100793.53;4976379;28;20068;-68
2024/02/16 05:16:37;;;;;;;5.22;3.10;;;;;;;7.67;58.10;100797.75;4984127;28;20492;-69
2024/02/16 05:19:03;;;;;;;4.20;2.10;;;;;;;7.65;58.53;100788.28;4979418;28;20041;-70
2024/02/16 05:21:28;;;;;;;4.75;1.58;;;;;;;7.72;58.26;100790.66;4986036;28;20077;-70
2024/02/16 05:23:55;;;;;;;4.47;2.20;;;;;;;7.65;58.27;100793.50;4980146;28;20033;-70
2024/02/16 05:26:20;;;;;;;6.72;2.33;;;;;;;7.51;58.68;100794.72;4967687;28;20048;-69
2024/02/16 05:28:46;;;;;;;4.80;2.08;;;;;;;7.68;58.00;100799.44;4987627;28;20026;-69
2024/02/16 05:31:18;;;;;;;7.18;2.42;;;;;;;7.62;58.44;100796.16;4977179;28;21631;-69
2024/02/16 05:33:44;;;;;;;5.32;2.05;;;;;;;7.67;57.80;100789.94;4989980;28;20080;-69
2024/02/16 05:36:10;;;;;;;4.93;2.10;;;;;;;7.69;57.75;100788.16;4977956;28;20033;-68
2024/02/16 05:38:41;;;;;;;4.63;2.30;;;;;;;7.71;57.82;100781.16;4981216;28;20039;-69
2024/02/16 05:41:07;;;;;;;5.32;2.78;;;;;;;7.74;57.52;100788.88;4969988;28;20041;-68
2024/02/16 05:43:34;;;;;;;7.20;1.88;;;;;;;7.76;57.62;100788.81;4978274;28;20649;-69
2024/02/16 05:46:00;;;;;;;3.92;2.42;;;;;;;7.50;58.22;100794.75;4979460;28;20044;-68
2024/02/16 05:48:29;;;;;;;5.43;2.15;;;;;;;7.47;58.26;100810.44;4974190;28;20048;-68
2024/02/16 05:51:00;;;;;;;5.65;2.55;;;;;;;7.27;58.74;100803.19;4973608;28;20056;-68
2024/02/16 05:53:27;;;;;;;8.48;2.83;;;;;;;7.49;57.96;100798.25;4969671;28;20037;-68
2024/02/16 05:55:55;;;;;;;2.97;1.73;;;;;;;7.50;57.88;100799.94;4906247;28;20337;-70
2024/02/16 05:58:24;;;;;;;4.57;2.35;;;;;;;7.41;58.07;100801.06;4929252;28;20037;-70
2024/02/16 06:00:57;;;;;;;5.20;2.67;;;;;;;6.95;59.41;100802.28;4910822;28;20127;-69
2024/02/16 06:03:23;;;;;;;9.30;2.45;;;;;;;7.23;58.80;100791.16;4942372;23;20057;-77
2024/02/16 06:05:49;;;;;;;3.05;2.22;;;;;;;7.22;58.71;100787.72;4945380;28;20141;-77
2024/02/16 06:08:17;;;;;;;9.60;2.15;;;;;;;7.38;58.32;100789.88;4955749;28;20148;-77
2024/02/16 06:10:43;;;;;;;5.78;2.85;;;;;;;7.22;58.29;100784.25;5014957;28;20045;-77
2024/02/16 06:13:08;;;;;;;3.58;1.90;;;;;;;7.47;57.60;100794.84;4997566;28;20098;-77
2024/02/16 06:15:34;;;;;;;6.72;2.45;;;;;;;7.05;58.98;100787.31;5006487;28;20332;-77
2024/02/16 06:18:00;;;;;;;7.45;2.17;;;;;;;7.39;58.11;100781.19;4982148;28;20032;-77
2024/02/16 06:20:25;;;;;;;5.68;2.30;;;;;;;7.35;57.84;100769.16;4976525;28;20033;-77
2024/02/16 06:22:51;;;;;;;8.73;2.75;;;;;;;7.50;57.83;100773.94;4986891;28;20465;-77
2024/02/16 06:25:16;;;;;;;5.38;2.10;;;;;;;7.60;57.46;100765.00;4984781;28;20448;-77
2024/02/16 06:27:42;;;;;;;3.30;1.75;;;;;;;7.36;57.94;100789.94;4989442;28;20486;-76
2024/02/16 06:30:12;;;;;;;6.13;2.40;;;;;;;7.56;57.61;100786.81;5004736;28;20351;-77
2024/02/16 06:32:37;;;;;;;8.18;2.90;;;;;;;7.43;58.34;100794.06;5001920;28;20100;-76
2024/02/16 06:35:03;;;;;;;4.90;1.85;;;;;;;7.58;57.86;100794.53;4990657;28;20102;-76
2024/02/16 06:37:29;;;;;;;5.45;2.72;;;;;;;7.60;58.05;100793.63;5006085;28;20037;-76
2024/02/16 06:39:54;;;;;;;3.10;2.22;;;;;;;7.21;58.82;100791.19;4989683;28;20513;-76
2024/02/16 06:42:20;;;;;;;5.85;2.17;;;;;;;7.43;58.07;100783.66;5003406;28;20049;-76
2024/02/16 06:44:46;;;;;;;6.15;2.50;;;;;;;7.46;58.13;100800.91;5002786;28;20060;-76
2024/02/16 06:47:11;;;;;;;9.43;2.20;;;;;;;7.58;57.61;100787.63;4982195;28;20049;-76
2024/02/16 06:49:37;;;;;;;4.70;1.63;;;;;;;7.62;57.36;100793.56;5004116;28;20154;-76
2024/02/16 06:52:03;;;;;;;6.80;2.00;;;;;;;7.63;57.29;100790.94;5004021;28;20463;-75
2024/02/16 06:54:28;;;;;;;3.92;2.28;;;;;;;7.52;57.41;100790.34;4986242;28;20036;-76
2024/02/16 06:56:54;;;;;;;3.83;1.98;;;;;;;7.77;57.08;100787.91;4983330;28;20057;-77
2024/02/16 06:59:20;;;;;;;5.70;1.98;;;;;;;7.68;57.29;100793.38;5000442;28;20500;-76
2024/02/16 07:01:45;;;;;;;3.83;2.03;;;;;;;7.80;56.77;100785.25;5000853;28;20044;-76
2024/02/16 07:04:11;;;;;;;6.38;2.08;;;;;;;7.67;57.41;100794.31;4987039;28;20037;-76
2024/02/16 07:06:36;;;;;;;5.93;2.17;;;;;;;7.61;57.26;100790.13;5004397;28;20055;-75
2024/02/16 07:09:02;;;;;;;7.93;2.80;;;;;;;7.65;57.82;100789.13;4964465;28;20029;-75
2024/02/16 07:11:28;;;;;;;3.08;1.65;;;;;;;7.40;58.15;100780.28;4999949;28;20045;-76
2024/02/16 07:13:54;;;;;;;3.22;1.92;;;;;;;7.69;57.61;100774.28;5004022;28;20033;-75
2024/02/16 07:16:19;;;;;;;6.15;1.95;;;;;;;7.70;57.67;100770.78;4997973;28;20378;-75
2024/02/16 07:18:45;;;;;;;8.40;2.65;;;;;;;7.67;57.52;100768.28;5004311;28;20025;-75
2024/02/16 07:21:11;;;;;;;4.95;1.90;;;;;;;7.50;58.02;100786.94;4986459;28;20072;-76
2024/02/16 07:23:37;;;;;;;4.32;1.67;;;;;;;7.59;57.58;100781.50;4973816;28;20169;-76
2024/02/16 07:26:02;;;;;;;4.82;2.03;;;;;;;7.43;58.19;100783.66;4984709;28;20037;-76
2024/02/16 07:28:28;;;;;;;3.47;2.28;;;;;;;7.42;57.99;100773.28;4961278;28;20037;-76
2024/02/16 07:30:54;;;;;;;3.28;2.03;;;;;;;7.58;57.50;100766.81;4961816;28;20072;-76
2024/02/16 07:33:20;;;;;;;4.90;2.20;;;;;;;7.65;57.22;100778.72;5002794;28;20088;-76
2024/02/16 07:35:46;;;;;;;3.58;1.52;;;;;;;7.50;57.84;100776.53;4985273;28;20037;-75
2024/02/16 07:38:12;;;;;;;2.58;2.10;;;;;;;7.51;57.83;100788.63;4971920;28;20029;-75
2024/02/16 07:40:38;;;;;;;5.10;2.05;;;;;;;7.46;58.27;100798.31;4984825;28;20055;-75
2024/02/16 07:43:04;;;;;;;5.13;1.85;;;;;;;7.53;57.97;100799.84;4980494;28;20056;-74
2024/02/16 07:45:30;;;;;;;5.25;1.80;;;;;;;7.05;58.52;100803.75;4971881;28;20037;-76
2024/02/16 07:47:56;;;;;;;6.70;1.88;;;;;;;7.53;57.52;100797.25;4967035;23;20338;-71
2024/02/16 07:50:22;;;;;;;5.03;1.98;;;;;;;7.71;57.40;100794.16;4953808;28;20050;-72
2024/02/16 07:52:49;;;;;;;5.85;1.67;;;;;;;7.39;57.48;100794.19;4966061;28;20041;-70
2024/02/16 07:55:18;;;;;;;2.92;2.08;;;;;;;7.63;57.46;100796.13;4965390;28;20128;-71
2024/02/16 07:57:44;;;;;;;6.50;1.95;;;;;;;7.33;58.09;100793.47;4986436;28;20371;-72
2024/02/16 08:00:10;;;;;;;4.82;1.63;;;;;;;7.92;56.83;100803.06;4962419;28;20116;-71
2024/02/16 08:02:36;;;;;;;4.35;1.50;;;;;;;7.87;56.72;100811.91;4968537;28;20096;-71
2024/02/16 08:05:03;;;;;;;5.45;1.75;;;;;;;8.11;55.95;100800.78;4970674;28;20519;-70
2024/02/16 08:07:29;;;;;;;4.20;2.00;;;;;;;7.76;56.68;100801.84;4983129;28;20129;-70
2024/02/16 08:09:55;;;;;;;6.03;1.98;;;;;;;8.17;55.94;100811.91;4984410;28;20025;-70
2024/02/16 08:12:21;;;;;;;4.35;1.63;;;;;;;8.50;55.12;100810.81;4979010;28;20053;-72
2024/02/16 08:14:46;;;;;;;5.95;1.13;;;;;;;7.83;56.73;100813.75;4971700;28;20118;-70
2024/02/16 08:17:12;;;;;;;2.13;1.38;;;;;;;8.22;55.67;100820.41;4965805;28;21112;-72
2024/02/16 08:19:38;;;;;;;5.38;1.42;;;;;;;8.15;55.61;100810.16;4984103;28;20036;-71
2024/02/16 08:22:05;;;;;;;5.07;1.85;;;;;;;8.25;55.76;100817.69;4986018;28;20052;-68
2024/02/16 08:24:35;;;;;;;2.72;1.10;;;;;;;8.02;56.08;100824.47;4983989;28;20098;-69
2024/02/16 08:27:00;;;;;;;4.10;2.00;;;;;;;8.20;55.84;100817.00;4982465;28;20037;-69
2024/02/16 08:29:26;;;;;;;5.75;1.38;;;;;;;7.73;56.94;100809.72;4952847;28;20282;-71
2024/02/16 08:31:52;;;;;;;5.68;1.73;;;;;;;8.17;56.43;100822.31;4917173;28;20060;-69
2024/02/16 08:34:18;;;;;;;3.72;1.50;;;;;;;7.99;56.54;100814.16;4922891;28;20041;-71
2024/02/16 08:36:45;;;;;;;3.30;1.05;;;;;;;7.94;56.97;100818.66;4926250;28;20762;-67
2024/02/16 08:39:13;;;;;;;8.95;2.17;;;;;;;8.02;56.78;100824.47;4927432;28;20223;-68
2024/02/16 08:41:39;;;;;;;2.70;1.75;;;;;;;8.20;56.31;100817.00;4903601;28;20677;-70
2024/02/16 08:44:10;;;;;;;2.70;1.08;;;;;;;8.60;55.58;100816.56;4894986;28;20111;-68
2024/02/16 08:46:36;;;;;;;4.15;1.67;;;;;;;8.79;55.10;100821.22;4920554;28;20271;-70
2024/02/16 08:49:05;;;;;;;2.47;1.38;;;;;;;8.49;55.69;100816.06;4917623;28;20064;-69
2024/02/16 08:51:34;;;;;;;3.08;1.45;;;;;;;8.33;55.98;100819.16;4972056;28;20124;-70
2024/02/16 08:54:00;;;;;;;6.68;1.75;;;;;;;8.27;56.57;100808.97;4963208;28;20052;-69
2024/02/16 08:56:27;;;;;;;2.70;1.00;;;;;;;8.69;55.49;100811.06;4958758;28;20293;-69
2024/02/16 08:58:53;;;;;;;6.03;1.38;;;;;;;8.48;55.93;100807.41;4967930;28;20514;-69
2024/02/16 09:01:18;;;;;;;1.80;1.15;;;;;;;8.77;55.27;100810.84;4924522;28;20046;-69
2024/02/16 09:03:44;;;;;;;3.17;1.48;;;;;;;8.39;55.73;100810.31;4972586;28;20119;-69
2024/02/16 09:06:09;;;;;;;4.47;1.58;;;;;;;8.68;55.67;100803.31;4960019;28;20061;-69
2024/02/16 09:08:36;;;;;;;7.80;2.08;;;;;;;8.43;56.29;100800.66;4986747;28;20088;-69
2024/02/16 09:11:05;;;;;;;11.57;1.92;;;;;;;8.32;56.66;100806.22;4963769;28;20169;-69
2024/02/16 09:13:35;;;;;;;4.95;1.33;;;;;;;9.03;54.72;100809.97;4958589;28;20411;-69
2024/02/16 09:16:03;;;;;;;6.63;1.80;;;;;;;9.12;54.22;100819.22;4970388;28;20053;-69
2024/02/16 09:18:29;;;;;;;6.70;2.13;;;;;;;9.19;54.31;100813.75;4967920;28;20058;-69
2024/02/16 09:20:54;;;;;;;5.60;1.77;;;;;;;8.85;55.13;100819.28;4970654;28;20056;-69
2024/02/16 09:23:20;;;;;;;2.65;1.33;;;;;;;8.94;54.80;100818.97;4979792;28;20045;-70
2024/02/16 09:25:46;;;;;;;6.05;3.78;;;;;;;9.31;54.44;100835.09;4986052;28;20039;-69
2024/02/16 09:28:12;;;;;;;3.80;1.20;;;;;;;9.28;54.18;100830.81;4973279;28;20045;-69
2024/02/16 09:30:38;;;;;;;3.63;2.25;;;;;;;9.38;53.92;100826.97;4986432;28;20048;-69
2024/02/16 09:33:04;;;;;;;5.05;2.28;;;;;;;8.94;54.99;100829.38;4954760;28;20428;-69
2024/02/16 09:35:29;;;;;;;3.45;1.80;;;;;;;8.90;55.22;100817.34;4975910;28;20498;-69
2024/02/16 09:37:55;;;;;;;3.40;1.67;;;;;;;8.97;55.04;100836.25;4984113;28;20025;-68
2024/02/16 09:40:22;;;;;;;5.72;1.95;;;;;;;9.03;54.98;100843.00;4961100;28;20534;-69
2024/02/16 09:42:51;;;;;;;1.92;0.75;;;;;;;9.37;53.97;100840.94;4965731;28;20059;-68
2024/02/16 09:45:17;;;;;;;2.95;1.67;;;;;;;9.67;53.67;100848.56;4954894;28;20033;-69
2024/02/16 09:47:45;;;;;;;6.35;2.25;;;;;;;9.17;54.58;100849.44;4970234;28;20415;-68
2024/02/16 09:50:10;;;;;;;2.90;1.25;;;;;;;9.15;54.56;100845.19;4971479;28;20114;-68
2024/02/16 09:52:37;;;;;;;4.55;1.67;;;;;;;9.48;54.16;100853.59;4967497;28;20942;-69
2024/02/16 09:55:03;;;;;;;4.00;1.55;;;;;;;9.45;54.21;100847.63;4975152;28;20250;-68
2024/02/16 09:57:28;;;;;;;3.85;1.50;;;;;;;8.97;55.08;100846.69;4974659;28;20534;-68
2024/02/16 09:59:54;;;;;;;4.72;1.40;;;;;;;9.11;54.89;100844.44;4985434;28;20106;-68
2024/02/16 10:02:20;;;;;;;3.83;1.67;;;;;;;9.21;54.81;100845.00;4909538;28;20353;-69
2024/02/16 10:04:46;;;;;;;7.22;2.00;;;;;;;9.50;54.33;100846.56;4902915;28;21068;-66
2024/02/16 10:07:13;;;;;;;4.93;1.52;;;;;;;9.24;54.73;100849.25;4899649;28;20482;-66
2024/02/16 10:09:42;;;;;;;4.15;2.00;;;;;;;9.14;54.81;100846.97;4924801;28;20236;-67
2024/02/16 10:12:08;;;;;;;3.88;1.67;;;;;;;8.70;55.96;100848.41;4903476;28;20373;-67
2024/02/16 10:14:34;;;;;;;5.63;1.67;;;;;;;9.52;54.23;100859.53;4938370;28;20951;-69
2024/02/16 10:17:06;;;;;;;3.92;2.08;;;;;;;9.61;54.50;100854.00;4986486;28;20048;-68
2024/02/16 10:19:40;;;;;;;;;;;;;;;9.28;54.53;100864.72;4985222;28;20125;-69
2024/02/16 10:22:08;;;;;;;5.55;1.73;;;;;;;9.94;53.61;100857.16;4958012;28;20518;-68
2024/02/16 10:24:33;;;;;;;5.80;2.33;;;;;;;9.88;53.80;100872.19;4964144;28;20111;-69
2024/02/16 10:26:59;;;;;;;4.55;2.33;;;;;;;10.01;53.64;100878.66;4953124;28;20039;-68
2024/02/16 10:29:27;;;;;;;3.80;2.13;;;;;;;10.01;53.56;100884.75;4978467;28;20079;-68
2024/02/16 10:31:52;;;;;;;6.78;1.70;;;;;;;9.77;54.20;100885.63;4982831;28;20624;-69
2024/02/16 10:34:20;;;;;;;4.75;2.58;;;;;;;10.10;53.52;100880.06;4962010;28;20042;-69
2024/02/16 10:36:48;;;;;;;6.63;2.20;;;;;;;9.84;54.18;100881.91;4978641;28;20065;-69
2024/02/16 10:39:16;;;;;;;6.57;2.20;;;;;;;9.44;54.82;100888.53;4966380;28;20045;-68
2024/02/16 10:41:41;;;;;;;5.43;1.75;;;;;;;9.80;53.64;100881.16;4965146;28;20631;-69
2024/02/16 10:44:07;;;;;;;4.97;1.30;;;;;;;10.10;53.52;100893.13;4988647;28;20426;-68
2024/02/16 10:46:34;;;;;;;4.05;2.15;;;;;;;10.15;53.49;100892.06;4982243;28;20136;-70
2024/02/16 10:49:00;;;;;;;4.70;2.13;;;;;;;10.02;53.30;100896.03;4988714;28;20061;-68
2024/02/16 10:51:47;;;;;;;3.90;1.67;;;;;;;10.49;52.48;100885.53;4979006;28;20047;-68
2024/02/16 10:54:17;;;;;;;4.30;1.92;;;;;;;10.42;52.98;100890.13;4985237;28;20026;-68
2024/02/16 10:56:42;;;;;;;9.25;1.73;;;;;;;10.59;52.68;100889.50;4966169;28;20124;-67
2024/02/16 10:59:09;;;;;;;4.25;1.88;;;;;;;9.56;54.90;100892.44;4968563;28;20021;-70
2024/02/16 11:01:43;;;;;;;4.35;1.83;;;;;;;10.50;53.43;100892.44;4975728;28;20042;-67
2024/02/16 11:04:12;;;;;;;3.35;1.70;;;;;;;10.37;53.80;100902.53;4988780;28;20118;-70
2024/02/16 11:06:48;;;;;;;4.00;2.25;;;;;;;10.52;52.98;100890.63;4976897;28;20041;-69
2024/02/16 11:09:23;;;;;;;4.20;2.60;;;;;;;10.31;53.57;100891.47;4985303;28;20116;-68
2024/02/16 11:11:53;;;;;;;6.45;1.85;;;;;;;9.94;54.57;100903.28;4952951;28;20378;-71
2024/02/16 11:14:22;;;;;;;4.38;2.85;;;;;;;10.42;52.97;100903.22;4905685;28;20394;-67
2024/02/16 11:16:48;;;;;;;4.65;2.42;;;;;;;10.63;52.93;100898.88;4903474;28;20542;-67
2024/02/16 11:19:16;;;;;;;4.20;2.55;;;;;;;10.35;53.31;100903.50;4923669;28;20403;-67
2024/02/16 11:21:59;;;;;;;6.57;2.88;;;;;;;10.90;52.42;100896.09;4920192;28;20289;-66
2024/02/16 11:24:33;;;;;;;3.75;1.90;;;;;;;10.88;52.62;100897.94;4900619;28;21255;-66
2024/02/16 11:27:03;;;;;;;2.88;1.83;;;;;;;11.67;51.37;100882.38;4890239;28;20215;-66
2024/02/16 11:29:34;;;;;;;4.30;2.97;;;;;;;11.25;51.29;100892.00;4892939;28;20274;-66
2024/02/16 11:32:06;;;;;;;4.25;2.42;;;;;;;11.12;51.52;100890.84;4880319;28;20380;-71